| time (UTC) | temp F | wind direction | speed MPH | gust MPH | rain 1hr in | rain 24hr in | rain mn in | humidity % | barometer mb |
| 20260506013707 | 59 | 355 | 0.0 | 2.0 | 0.00 | 0.04 | 0.04 | 89 | 1009.5 |
| 20260506013206 | 59 | 355 | 0.0 | 1.0 | 0.00 | 0.04 | 0.04 | 89 | 1009.4 |
| 20260506012707 | 59 | 355 | 0.0 | 0.0 | 0.00 | 0.04 | 0.04 | 89 | 1009.4 |
| 20260506012206 | 59 | 355 | 0.0 | 2.0 | 0.00 | 0.04 | 0.04 | 89 | 1009.5 |
| 20260506011706 | 59 | 355 | 1.0 | 3.0 | 0.00 | 0.04 | 0.04 | 89 | 1009.3 |
| 20260506011205 | 60 | 355 | 1.0 | 3.0 | 0.00 | 0.04 | 0.04 | 89 | 1009.4 |
| 20260506010706 | 60 | 355 | 1.0 | 2.0 | 0.00 | 0.04 | 0.04 | 88 | 1009.5 |
| 20260506010205 | 60 | 355 | 1.0 | 3.0 | 0.00 | 0.04 | 0.04 | 88 | 1009.4 |
| 20260506005705 | 60 | 355 | 2.0 | 4.0 | 0.00 | 0.04 | 0.04 | 88 | 1009.4 |
| 20260506005205 | 60 | 355 | 2.0 | 4.0 | 0.00 | 0.04 | 0.04 | 87 | 1009.3 |
| 20260506004204 | 61 | 355 | 1.0 | 3.0 | 0.00 | 0.04 | 0.04 | 85 | 1009.3 |
| 20260506003705 | 61 | 355 | 2.0 | 4.0 | 0.00 | 0.04 | 0.04 | 84 | 1009.2 |
| 20260506003201 | 62 | 355 | 2.0 | 4.0 | 0.00 | 0.04 | 0.04 | 83 | 1009.1 |
| 20260506002700 | 62 | 106 | 1.0 | 3.0 | 0.00 | 0.04 | 0.04 | 82 | 1009.1 |
| 20260506002159 | 63 | 107 | 1.0 | 2.0 | 0.00 | 0.04 | 0.04 | 80 | 1009.2 |
| 20260506001659 | 64 | 108 | 0.0 | 3.0 | 0.00 | 0.04 | 0.04 | 78 | 1009.1 |
| 20260506001159 | 64 | 108 | 1.0 | 3.0 | 0.00 | 0.04 | 0.04 | 76 | 1009.0 |
| 20260506000700 | 64 | 84 | 1.0 | 4.0 | 0.00 | 0.04 | 0.04 | 75 | 1009.0 |
| 20260506000158 | 63 | 84 | 1.0 | 4.0 | 0.00 | 0.04 | 0.04 | 76 | 1009.1 |
| 20260505235657 | 64 | 239 | 1.0 | 2.0 | 0.00 | 0.04 | 0.04 | 77 | 1009.2 |
| 20260505235158 | 64 | 240 | 1.0 | 5.0 | 0.00 | 0.04 | 0.04 | 77 | 1009.1 |
| 20260505234657 | 63 | 194 | 2.0 | 5.0 | 0.00 | 0.04 | 0.04 | 78 | 1009.1 |
| 20260505233657 | 63 | 342 | 0.0 | 2.0 | 0.00 | 0.04 | 0.04 | 82 | 1009.1 |
| 20260505233157 | 63 | 9 | 1.0 | 3.0 | 0.00 | 0.04 | 0.04 | 83 | 1008.8 |
| 20260505232657 | 63 | 9 | 2.0 | 5.0 | 0.00 | 0.04 | 0.04 | 82 | 1008.7 |
| 20260505232158 | 64 | 9 | 2.0 | 5.0 | 0.00 | 0.04 | 0.04 | 82 | 1008.6 |
| 20260505231658 | 64 | 5 | 2.0 | 5.0 | 0.00 | 0.04 | 0.04 | 78 | 1008.5 |
| 20260505231155 | 64 | 166 | 1.0 | 5.0 | 0.00 | 0.04 | 0.04 | 74 | 1008.4 |
| 20260505230655 | 64 | 62 | 2.0 | 6.0 | 0.00 | 0.04 | 0.04 | 74 | 1008.4 |
| 20260505230155 | 63 | 163 | 2.0 | 6.0 | 0.00 | 0.04 | 0.04 | 78 | 1008.4 |
| 20260505225155 | 63 | 167 | 2.0 | 5.0 | 0.00 | 0.04 | 0.04 | 84 | 1008.2 |
| 20260505224655 | 63 | 167 | 2.0 | 5.0 | 0.00 | 0.04 | 0.04 | 85 | 1008.4 |
| 20260505224155 | 63 | 54 | 2.0 | 5.0 | 0.00 | 0.04 | 0.04 | 84 | 1008.4 |
| 20260505223655 | 63 | 53 | 2.0 | 5.0 | 0.00 | 0.04 | 0.04 | 84 | 1008.3 |
| 20260505223155 | 64 | 5 | 2.0 | 4.0 | 0.00 | 0.04 | 0.04 | 83 | 1008.2 |
| 20260505222153 | 63 | 169 | 2.0 | 5.0 | 0.00 | 0.04 | 0.04 | 82 | 1008.2 |
| 20260505221655 | 63 | 165 | 2.0 | 5.0 | 0.00 | 0.04 | 0.04 | 83 | 1008.2 |
| 20260505221153 | 63 | 110 | 0.0 | 3.0 | 0.00 | 0.04 | 0.04 | 83 | 1008.4 |
| 20260505220653 | 63 | 79 | 0.0 | 2.0 | 0.00 | 0.04 | 0.04 | 83 | 1008.4 |
| 20260505220154 | 63 | 79 | 1.0 | 3.0 | 0.00 | 0.04 | 0.04 | 83 | 1008.6 |
| 20260505215653 | 63 | 79 | 1.0 | 4.0 | 0.00 | 0.04 | 0.04 | 83 | 1008.5 |
| 20260505215152 | 63 | 5 | 2.0 | 4.0 | 0.00 | 0.04 | 0.04 | 84 | 1008.1 |
| 20260505214152 | 63 | 343 | 2.0 | 6.0 | 0.00 | 0.04 | 0.04 | 84 | 1007.8 |
| 20260505213651 | 64 | 42 | 2.0 | 6.0 | 0.00 | 0.04 | 0.04 | 83 | 1007.8 |
| 20260505213152 | 64 | 343 | 3.0 | 8.0 | 0.00 | 0.04 | 0.04 | 82 | 1007.9 |
| 20260505212650 | 65 | 49 | 3.0 | 8.0 | 0.00 | 0.04 | 0.04 | 81 | 1007.7 |
| 20260505212151 | 66 | 355 | 3.0 | 8.0 | 0.00 | 0.04 | 0.04 | 78 | 1007.8 |
| 20260505211651 | 67 | 342 | 2.0 | 7.0 | 0.00 | 0.04 | 0.04 | 72 | 1007.8 |
| 20260505211152 | 66 | 193 | 3.0 | 9.0 | 0.00 | 0.04 | 0.04 | 71 | 1007.9 |
| 20260505210650 | 66 | 136 | 3.0 | 9.0 | 0.00 | 0.04 | 0.04 | 72 | 1007.9 |
| 20260505205651 | 65 | 148 | 2.0 | 6.0 | 0.01 | 0.04 | 0.04 | 74 | 1007.9 |
| 20260505204649 | 65 | 215 | 3.0 | 9.0 | 0.03 | 0.04 | 0.04 | 75 | 1007.9 |
| 20260505204149 | 65 | 214 | 3.0 | 9.0 | 0.03 | 0.04 | 0.04 | 75 | 1007.9 |
| 20260505203648 | 65 | 200 | 3.0 | 7.0 | 0.03 | 0.04 | 0.04 | 75 | 1007.4 |
| 20260505202650 | 65 | 153 | 3.0 | 7.0 | 0.04 | 0.04 | 0.04 | 77 | 1007.1 |
| 20260505202149 | 65 | 148 | 3.0 | 8.0 | 0.04 | 0.04 | 0.04 | 78 | 1007.2 |
| 20260505201650 | 65 | 166 | 3.0 | 8.0 | 0.04 | 0.04 | 0.04 | 78 | 1007.2 |
| 20260505201147 | 65 | 196 | 3.0 | 5.0 | 0.04 | 0.04 | 0.04 | 79 | 1007.1 |
| 20260505200646 | 65 | 127 | 3.0 | 6.0 | 0.04 | 0.04 | 0.04 | 78 | 1007.1 |
| 20260505195645 | 67 | 233 | 7.0 | 26.0 | 0.03 | 0.03 | 0.03 | 72 | 1007.3 |
| 20260505195145 | 70 | 271 | 5.0 | 26.0 | 0.01 | 0.01 | 0.01 | 65 | 1007.7 |
| 20260505194143 | 71 | 178 | 3.0 | 14.0 | 0.01 | 0.01 | 0.01 | 60 | 1005.5 |
| 20260505192643 | 77 | 236 | 7.0 | 24.0 | 0.00 | 0.00 | 0.00 | 46 | 1005.0 |
| 20260505192143 | 79 | 246 | 6.0 | 24.0 | 0.00 | 0.00 | 0.00 | 39 | 1004.9 |
| 20260505191141 | 79 | 139 | 7.0 | 20.0 | 0.00 | 0.00 | 0.00 | 37 | 1004.2 |
| 20260505190641 | 80 | 263 | 8.0 | 20.0 | 0.00 | 0.00 | 0.00 | 38 | 1004.5 |
| 20260505190140 | 80 | 202 | 7.0 | 16.0 | 0.00 | 0.00 | 0.00 | 37 | 1004.1 |
| 20260505185640 | 80 | 167 | 6.0 | 19.0 | 0.00 | 0.00 | 0.00 | 37 | 1004.1 |
| 20260505185141 | 80 | 178 | 5.0 | 19.0 | 0.00 | 0.00 | 0.00 | 37 | 1004.2 |
| 20260505184641 | 80 | 297 | 5.0 | 13.0 | 0.00 | 0.00 | 0.00 | 37 | 1004.2 |
| 20260505184141 | 80 | 182 | 6.0 | 21.0 | 0.00 | 0.00 | 0.00 | 37 | 1004.3 |
| 20260505183640 | 80 | 80 | 6.0 | 21.0 | 0.00 | 0.00 | 0.00 | 37 | 1004.3 |
| 20260505183140 | 79 | 150 | 5.0 | 17.0 | 0.00 | 0.00 | 0.00 | 38 | 1004.4 |
| 20260505182641 | 79 | 68 | 6.0 | 17.0 | 0.00 | 0.00 | 0.00 | 38 | 1004.4 |
| 20260505182142 | 79 | 208 | 7.0 | 17.0 | 0.00 | 0.00 | 0.00 | 39 | 1004.6 |
| 20260505181640 | 79 | 206 | 7.0 | 17.0 | 0.00 | 0.00 | 0.00 | 37 | 1004.5 |
| 20260505180642 | 80 | 204 | 8.0 | 18.0 | 0.00 | 0.00 | 0.00 | 37 | 1005.0 |
| 20260505180140 | 80 | 191 | 7.0 | 22.0 | 0.00 | 0.00 | 0.00 | 37 | 1004.9 |
| 20260505175640 | 79 | 197 | 8.0 | 22.0 | 0.00 | 0.00 | 0.00 | 37 | 1004.9 |
| 20260505175141 | 80 | 129 | 8.0 | 19.0 | 0.00 | 0.00 | 0.00 | 37 | 1004.9 |
| 20260505174640 | 80 | 276 | 7.0 | 18.0 | 0.00 | 0.00 | 0.00 | 36 | 1005.0 |
| 20260505174141 | 80 | 236 | 6.0 | 18.0 | 0.00 | 0.00 | 0.00 | 37 | 1005.0 |
| 20260505173640 | 81 | 269 | 5.0 | 17.0 | 0.00 | 0.00 | 0.00 | 37 | 1005.0 |
| 20260505173140 | 80 | 202 | 7.0 | 19.0 | 0.00 | 0.00 | 0.00 | 36 | 1004.9 |
| 20260505172638 | 80 | 196 | 9.0 | 21.0 | 0.00 | 0.00 | 0.00 | 38 | 1005.1 |
| 20260505172140 | 80 | 208 | 8.0 | 21.0 | 0.00 | 0.00 | 0.00 | 36 | 1005.1 |
| 20260505171636 | 80 | 243 | 7.0 | 16.0 | 0.00 | 0.00 | 0.00 | 37 | 1005.3 |
| 20260505171134 | 80 | 143 | 7.0 | 16.0 | 0.00 | 0.00 | 0.00 | 37 | 1005.2 |
| 20260505170632 | 80 | 202 | 7.0 | 16.0 | 0.00 | 0.00 | 0.00 | 38 | 1005.3 |
| 20260505170130 | 80 | 337 | 6.0 | 14.0 | 0.00 | 0.00 | 0.00 | 39 | 1005.3 |
| 20260505165630 | 79 | 146 | 5.0 | 12.0 | 0.00 | 0.00 | 0.00 | 39 | 1005.3 |
| 20260505165131 | 79 | 202 | 5.0 | 13.0 | 0.00 | 0.00 | 0.00 | 40 | 1005.5 |
| 20260505164630 | 79 | 205 | 5.0 | 16.0 | 0.00 | 0.00 | 0.00 | 41 | 1005.5 |
| 20260505164129 | 78 | 149 | 6.0 | 16.0 | 0.00 | 0.00 | 0.00 | 42 | 1005.7 |
| 20260505163628 | 77 | 205 | 7.0 | 20.0 | 0.00 | 0.00 | 0.00 | 41 | 1006.0 |
| 20260505163130 | 77 | 216 | 7.0 | 20.0 | 0.00 | 0.00 | 0.00 | 42 | 1006.1 |
| 20260505162629 | 78 | 199 | 6.0 | 18.0 | 0.00 | 0.00 | 0.00 | 42 | 1006.3 |
| 20260505162126 | 77 | 183 | 6.0 | 15.0 | 0.00 | 0.00 | 0.00 | 43 | 1006.3 |
| 20260505161625 | 77 | 252 | 6.0 | 15.0 | 0.00 | 0.00 | 0.00 | 44 | 1006.5 |
| 20260505161127 | 76 | 217 | 7.0 | 17.0 | 0.00 | 0.00 | 0.00 | 44 | 1006.7 |
| 20260505160626 | 76 | 215 | 6.0 | 17.0 | 0.00 | 0.00 | 0.00 | 46 | 1006.7 |
| 20260505153125 | 74 | 137 | 5.0 | 15.0 | 0.00 | 0.00 | 0.00 | 49 | 1007.3 |
| 20260505152625 | 74 | 198 | 5.0 | 15.0 | 0.00 | 0.00 | 0.00 | 49 | 1007.6 |
| 20260505151625 | 73 | 80 | 5.0 | 13.0 | 0.00 | 0.00 | 0.00 | 51 | 1007.7 |
| 20260505151124 | 72 | 236 | 5.0 | 13.0 | 0.00 | 0.00 | 0.00 | 52 | 1007.7 |
| 20260505150123 | 71 | 171 | 3.0 | 11.0 | 0.00 | 0.00 | 0.00 | 54 | 1007.7 |
| 20260505140620 | 70 | 240 | 6.0 | 18.0 | 0.00 | 0.00 | 0.00 | 53 | 1008.3 |
| 20260505140119 | 69 | 195 | 5.0 | 12.0 | 0.00 | 0.00 | 0.00 | 54 | 1008.1 |
| 20260505130113 | 53 | 13 | 1.0 | 2.0 | 0.00 | 0.00 | 0.00 | 79 | 1008.6 |
| 20260505124611 | 53 | 355 | 3.0 | 4.0 | 0.00 | 0.00 | 0.00 | 79 | 1008.6 |
| 20260505124111 | 52 | 21 | 3.0 | 5.0 | 0.00 | 0.00 | 0.00 | 80 | 1008.6 |
| 20260505123611 | 52 | 0 | 2.0 | 5.0 | 0.00 | 0.00 | 0.00 | 80 | 1008.5 |
| 20260505123110 | 51 | 5 | 1.0 | 3.0 | 0.00 | 0.00 | 0.00 | 81 | 1008.3 |
| 20260505121610 | 51 | 348 | 1.0 | 3.0 | 0.00 | 0.00 | 0.00 | 82 | 1008.3 |
| 20260505121110 | 50 | 348 | 1.0 | 2.0 | 0.00 | 0.00 | 0.00 | 82 | 1008.3 |
| 20260505120610 | 50 | 348 | 0.0 | 1.0 | 0.00 | 0.00 | 0.00 | 84 | 1008.1 |
| 20260505120110 | 49 | 348 | 0.0 | 2.0 | 0.00 | 0.00 | 0.00 | 85 | 1008.3 |
| 20260505115607 | 49 | 348 | 0.0 | 2.0 | 0.00 | 0.00 | 0.00 | 86 | 1008.7 |
| 20260505115107 | 48 | 348 | 1.0 | 2.0 | 0.00 | 0.00 | 0.00 | 87 | 1009.0 |
| 20260505114607 | 47 | 347 | 1.0 | 3.0 | 0.00 | 0.00 | 0.00 | 87 | 1009.0 |
| 20260505114105 | 47 | 348 | 2.0 | 5.0 | 0.00 | 0.00 | 0.00 | 88 | 1009.1 |
| 20260505113105 | 46 | 24 | 2.0 | 4.0 | 0.00 | 0.00 | 0.00 | 88 | 1009.1 |
| 20260505112605 | 45 | 288 | 1.0 | 3.0 | 0.00 | 0.00 | 0.00 | 89 | 1008.7 |
| 20260505111607 | 44 | 38 | 0.0 | 2.0 | 0.00 | 0.00 | 0.00 | 89 | 1008.5 |
| 20260505111106 | 44 | 38 | 1.0 | 2.0 | 0.00 | 0.00 | 0.00 | 89 | 1008.7 |
| 20260505110605 | 44 | 38 | 1.0 | 3.0 | 0.00 | 0.00 | 0.00 | 89 | 1008.7 |
| 20260505110106 | 44 | 38 | 1.0 | 3.0 | 0.00 | 0.00 | 0.00 | 89 | 1009.0 |
| 20260505102105 | 43 | 38 | 1.0 | 4.0 | 0.00 | 0.00 | 0.00 | 90 | 1009.1 |
| 20260505101605 | 42 | 14 | 1.0 | 3.0 | 0.00 | 0.00 | 0.00 | 90 | 1009.1 |
| 20260505101106 | 42 | 14 | 1.0 | 5.0 | 0.00 | 0.00 | 0.00 | 90 | 1009.0 |
| 20260505100605 | 42 | 5 | 1.0 | 5.0 | 0.00 | 0.00 | 0.00 | 89 | 1009.1 |
| 20260505100104 | 42 | 22 | 1.0 | 4.0 | 0.00 | 0.00 | 0.00 | 89 | 1009.0 |
| 20260505095603 | 42 | 32 | 1.0 | 3.0 | 0.00 | 0.01 | 0.00 | 89 | 1008.8 |
| 20260505095103 | 42 | 32 | 2.0 | 4.0 | 0.00 | 0.01 | 0.00 | 89 | 1008.9 |
| 20260505094603 | 42 | 28 | 2.0 | 4.0 | 0.00 | 0.01 | 0.00 | 89 | 1008.9 |
| 20260505094103 | 42 | 30 | 1.0 | 4.0 | 0.00 | 0.01 | 0.00 | 90 | 1008.8 |
| 20260505093605 | 42 | 355 | 1.0 | 4.0 | 0.00 | 0.01 | 0.00 | 89 | 1008.8 |
| 20260505093104 | 42 | 355 | 1.0 | 4.0 | 0.00 | 0.01 | 0.00 | 89 | 1008.7 |
| 20260505092601 | 42 | 24 | 1.0 | 4.0 | 0.00 | 0.01 | 0.00 | 89 | 1008.8 |
| 20260505092101 | 42 | 34 | 1.0 | 4.0 | 0.00 | 0.01 | 0.00 | 89 | 1008.8 |
| 20260505091601 | 42 | 24 | 1.0 | 5.0 | 0.00 | 0.01 | 0.00 | 89 | 1008.8 |
| 20260505091103 | 42 | 24 | 1.0 | 5.0 | 0.00 | 0.01 | 0.00 | 89 | 1009.0 |
| 20260505090601 | 42 | 27 | 2.0 | 5.0 | 0.00 | 0.01 | 0.00 | 89 | 1009.0 |
| 20260505085101 | 42 | 46 | 0.0 | 2.0 | 0.00 | 0.01 | 0.00 | 89 | 1009.0 |
| 20260505084601 | 42 | 38 | 1.0 | 3.0 | 0.00 | 0.01 | 0.00 | 89 | 1009.3 |
| 20260505084100 | 42 | 39 | 1.0 | 4.0 | 0.00 | 0.01 | 0.00 | 89 | 1009.2 |
| 20260505083559 | 42 | 0 | 1.0 | 4.0 | 0.00 | 0.01 | 0.00 | 89 | 1009.3 |
| 20260505083059 | 42 | 35 | 1.0 | 3.0 | 0.00 | 0.01 | 0.00 | 89 | 1009.2 |
| 20260505082601 | 42 | 35 | 1.0 | 2.0 | 0.00 | 0.01 | 0.00 | 89 | 1009.2 |
| 20260505082100 | 42 | 35 | 1.0 | 2.0 | 0.00 | 0.01 | 0.00 | 89 | 1009.1 |
| 20260505081557 | 42 | 35 | 1.0 | 3.0 | 0.00 | 0.01 | 0.00 | 89 | 1009.1 |
| 20260505080557 | 42 | 51 | 2.0 | 4.0 | 0.00 | 0.01 | 0.00 | 89 | 1009.1 |
| 20260505080058 | 42 | 44 | 2.0 | 4.0 | 0.00 | 0.01 | 0.00 | 89 | 1009.0 |
| 20260505075558 | 42 | 44 | 2.0 | 5.0 | 0.00 | 0.01 | 0.00 | 89 | 1009.1 |
| 20260505075054 | 42 | 5 | 2.0 | 5.0 | 0.00 | 0.01 | 0.00 | 89 | 1009.1 |
| 20260505074555 | 42 | 349 | 1.0 | 5.0 | 0.00 | 0.01 | 0.00 | 89 | 1009.2 |
| 20260505074055 | 42 | 13 | 1.0 | 3.0 | 0.00 | 0.01 | 0.00 | 88 | 1009.2 |
| 20260505073556 | 42 | 13 | 0.0 | 3.0 | 0.00 | 0.01 | 0.00 | 88 | 1009.1 |
| 20260505073055 | 43 | 13 | 1.0 | 7.0 | 0.00 | 0.01 | 0.00 | 88 | 1009.2 |
| 20260505072554 | 43 | 13 | 2.0 | 7.0 | 0.00 | 0.01 | 0.00 | 88 | 1009.2 |
| 20260505072055 | 43 | 11 | 1.0 | 5.0 | 0.00 | 0.01 | 0.00 | 88 | 1009.3 |
| 20260505071555 | 43 | 38 | 1.0 | 3.0 | 0.00 | 0.01 | 0.00 | 88 | 1009.3 |
| 20260505071055 | 43 | 38 | 1.0 | 4.0 | 0.00 | 0.01 | 0.00 | 88 | 1009.3 |
| 20260505070555 | 43 | 38 | 1.0 | 4.0 | 0.00 | 0.01 | 0.00 | 88 | 1009.2 |
| 20260505070053 | 43 | 59 | 1.0 | 3.0 | 0.00 | 0.01 | 0.00 | 88 | 1009.3 |
| 20260505065554 | 43 | 59 | 1.0 | 4.0 | 0.00 | 0.01 | 0.00 | 88 | 1009.3 |
| 20260505064553 | 43 | 17 | 2.0 | 7.0 | 0.00 | 0.01 | 0.00 | 88 | 1009.2 |
| 20260505064053 | 43 | 9 | 1.0 | 5.0 | 0.00 | 0.01 | 0.00 | 88 | 1009.2 |
| 20260505063052 | 43 | 11 | 2.0 | 6.0 | 0.00 | 0.01 | 0.00 | 87 | 1009.3 |
| 20260505062552 | 44 | 28 | 3.0 | 7.0 | 0.00 | 0.01 | 0.00 | 87 | 1009.3 |
| 20260505062053 | 44 | 17 | 2.0 | 7.0 | 0.00 | 0.01 | 0.00 | 87 | 1009.2 |
| 20260505061553 | 44 | 19 | 2.0 | 8.0 | 0.00 | 0.01 | 0.00 | 86 | 1009.2 |
| 20260505061052 | 44 | 19 | 2.0 | 8.0 | 0.00 | 0.01 | 0.00 | 87 | 1009.2 |
| 20260505060552 | 44 | 34 | 1.0 | 4.0 | 0.00 | 0.01 | 0.00 | 86 | 1009.2 |
| 20260505060050 | 44 | 34 | 2.0 | 5.0 | 0.00 | 0.01 | 0.00 | 86 | 1009.3 |
| 20260505054549 | 44 | 27 | 1.0 | 4.0 | 0.00 | 0.01 | 0.00 | 86 | 1009.3 |
| 20260505054049 | 44 | 27 | 1.0 | 4.0 | 0.00 | 0.01 | 0.00 | 85 | 1009.4 |
| 20260505053049 | 45 | 33 | 1.0 | 4.0 | 0.00 | 0.01 | 0.00 | 85 | 1009.4 |
| 20260505052550 | 45 | 33 | 0.0 | 4.0 | 0.00 | 0.01 | 0.00 | 85 | 1009.4 |
| 20260505052050 | 45 | 33 | 0.0 | 1.0 | 0.00 | 0.01 | 0.00 | 85 | 1009.3 |
| 20260505051548 | 45 | 33 | 0.0 | 2.0 | 0.00 | 0.01 | 0.00 | 84 | 1009.2 |
| 20260505051048 | 45 | 33 | 1.0 | 3.0 | 0.00 | 0.01 | 0.00 | 84 | 1009.3 |
| 20260505050549 | 45 | 33 | 0.0 | 3.0 | 0.00 | 0.01 | 0.00 | 85 | 1009.2 |
| 20260505041042 | 47 | 40 | 1.0 | 4.0 | 0.00 | 0.01 | 0.00 | 82 | 1009.2 |
| 20260505040542 | 47 | 35 | 1.0 | 3.0 | 0.00 | 0.01 | 0.00 | 82 | 1009.2 |
| 20260505035540 | 48 | 41 | 1.0 | 2.0 | 0.00 | 0.01 | 0.01 | 81 | 1009.2 |
| 20260505034541 | 48 | 41 | 1.0 | 3.0 | 0.00 | 0.01 | 0.01 | 80 | 1009.1 |
| 20260505034040 | 48 | 24 | 1.0 | 2.0 | 0.00 | 0.01 | 0.01 | 79 | 1009.1 |
| 20260505033040 | 49 | 24 | 0.0 | 1.0 | 0.00 | 0.01 | 0.01 | 78 | 1009.0 |
| 20260505032040 | 49 | 24 | 0.0 | 2.0 | 0.00 | 0.01 | 0.01 | 78 | 1009.1 |
| 20260505031540 | 49 | 24 | 0.0 | 2.0 | 0.00 | 0.01 | 0.01 | 77 | 1009.1 |
| 20260505031038 | 50 | 24 | 0.0 | 1.0 | 0.00 | 0.01 | 0.01 | 77 | 1009.1 |
| 20260505030540 | 50 | 24 | 0.0 | 1.0 | 0.00 | 0.01 | 0.01 | 77 | 1009.1 |
| 20260505030038 | 50 | 24 | 1.0 | 3.0 | 0.00 | 0.01 | 0.01 | 76 | 1009.1 |
| 20260505025537 | 50 | 24 | 1.0 | 4.0 | 0.00 | 0.01 | 0.01 | 77 | 1009.2 |
| 20260505025037 | 51 | 24 | 1.0 | 4.0 | 0.00 | 0.01 | 0.01 | 76 | 1009.2 |
| 20260505024539 | 51 | 40 | 1.0 | 3.0 | 0.00 | 0.01 | 0.01 | 76 | 1009.2 |
| 20260505024038 | 51 | 40 | 1.0 | 3.0 | 0.00 | 0.01 | 0.01 | 75 | 1009.2 |
| 20260505023536 | 51 | 40 | 2.0 | 3.0 | 0.00 | 0.01 | 0.01 | 75 | 1009.1 |
| 20260505023036 | 52 | 41 | 1.0 | 3.0 | 0.00 | 0.01 | 0.01 | 75 | 1009.3 |
| 20260505022536 | 52 | 44 | 2.0 | 4.0 | 0.00 | 0.01 | 0.01 | 74 | 1009.2 |
| 20260505022037 | 52 | 44 | 2.0 | 4.0 | 0.00 | 0.01 | 0.01 | 74 | 1009.2 |
| 20260505021036 | 53 | 11 | 1.0 | 3.0 | 0.00 | 0.01 | 0.01 | 73 | 1009.2 |
| 20260505020536 | 53 | 11 | 1.0 | 3.0 | 0.00 | 0.01 | 0.01 | 73 | 1009.2 |
| 20260505020035 | 53 | 11 | 1.0 | 3.0 | 0.00 | 0.01 | 0.01 | 72 | 1009.2 |
| 20260505015536 | 54 | 11 | 1.0 | 4.0 | 0.00 | 0.01 | 0.01 | 72 | 1009.3 |
| 20260505014537 | 54 | 27 | 1.0 | 3.0 | 0.00 | 0.01 | 0.01 | 71 | 1009.2 |
| 20260505014037 | 55 | 27 | 1.0 | 5.0 | 0.00 | 0.01 | 0.01 | 70 | 1009.3 |